Time,TemperatureF,DewpointF,PressureIn,WindDirection,WindDirectionDegrees,WindSpeedMPH,WindSpeedGustMPH,Humidity,HourlyPrecipIn,Conditions,Clouds,dailyrainin,SoftwareType,DateUTC
2013-07-22 00:01:00,77.0,52.0,30.02,East,80,2.0,5.0,42,0.00,,,0.00,,2013-07-22 07:01:00,
2013-07-22 00:11:00,77.0,53.0,30.02,East,80,1.0,5.0,43,0.00,,,0.00,,2013-07-22 07:11:00,
2013-07-22 00:33:00,76.0,55.0,30.02,East,81,1.0,3.0,49,0.00,,,0.00,,2013-07-22 07:33:00,
2013-07-22 02:02:00,74.0,60.0,29.98,SW,236,3.0,7.0,61,0.00,,,0.00,,2013-07-22 09:02:00,
2013-07-22 02:11:00,74.0,58.0,29.98,SW,234,6.0,9.0,58,0.00,,,0.00,,2013-07-22 09:11:00,
2013-07-22 02:22:00,75.0,58.0,29.98,SW,223,7.0,10.0,56,0.00,,,0.00,,2013-07-22 09:22:00,
2013-07-22 02:33:00,75.0,57.0,29.98,SW,224,5.0,8.0,53,0.00,,,0.00,,2013-07-22 09:33:00,
2013-07-22 02:42:00,75.0,57.0,29.98,SW,221,5.0,8.0,54,0.00,,,0.00,,2013-07-22 09:42:00,
2013-07-22 02:52:00,75.0,58.0,29.98,WSW,256,1.0,5.0,56,0.00,,,0.00,,2013-07-22 09:52:00,
2013-07-22 03:01:00,74.0,58.0,29.98,SW,235,4.0,5.0,57,0.00,,,0.00,,2013-07-22 10:01:00,
2013-07-22 03:11:00,73.0,58.0,29.98,WSW,245,2.0,6.0,60,0.00,,,0.00,,2013-07-22 10:11:00,
2013-07-22 03:22:00,73.0,57.0,29.98,North,0,0.0,4.0,57,0.00,,,0.00,,2013-07-22 10:22:00,
2013-07-22 03:32:00,74.0,56.0,29.98,SW,226,5.0,8.0,53,0.00,,,0.00,,2013-07-22 10:32:00,
2013-07-22 03:43:00,74.0,55.0,29.98,SSW,213,5.0,7.0,52,0.00,,,0.00,,2013-07-22 10:43:00,
2013-07-22 03:52:00,74.0,55.0,29.98,SW,220,6.0,8.0,51,0.00,,,0.00,,2013-07-22 10:52:00,
2013-07-22 04:01:00,74.0,54.0,29.98,SW,221,5.0,8.0,50,0.00,,,0.00,,2013-07-22 11:01:00,
2013-07-22 04:11:00,74.0,55.0,29.98,SW,229,4.0,7.0,51,0.00,,,0.00,,2013-07-22 11:11:00,
2013-07-22 04:32:00,74.0,54.0,29.98,SW,215,6.0,8.0,50,0.00,,,0.00,,2013-07-22 11:32:00,
2013-07-22 04:43:00,74.0,54.0,29.98,SW,215,6.0,9.0,50,0.00,,,0.00,,2013-07-22 11:43:00,
2013-07-22 04:52:00,74.0,55.0,29.99,SW,216,6.0,9.0,51,0.00,,,0.00,,2013-07-22 11:52:00,
2013-07-22 05:02:00,73.0,54.0,29.99,SW,225,7.0,9.0,51,0.00,,,0.00,,2013-07-22 12:02:00,
2013-07-22 05:11:00,73.0,54.0,29.98,WSW,238,6.0,9.0,51,0.00,,,0.00,,2013-07-22 12:11:00,
2013-07-22 05:32:00,73.0,54.0,29.99,SW,232,6.0,10.0,52,0.00,,,0.00,,2013-07-22 12:32:00,
2013-07-22 05:43:00,72.0,54.0,29.99,SW,229,6.0,10.0,54,0.00,,,0.00,,2013-07-22 12:43:00,
2013-07-22 05:52:00,72.0,54.0,29.99,SW,231,6.0,9.0,54,0.00,,,0.00,,2013-07-22 12:52:00,
2013-07-22 06:32:00,72.0,55.0,30.01,SW,231,8.0,12.0,55,0.00,,,0.00,,2013-07-22 13:32:00,
2013-07-22 06:53:00,72.0,56.0,30.01,SW,230,9.0,11.0,57,0.00,,,0.00,,2013-07-22 13:53:00,
2013-07-22 07:01:00,72.0,56.0,30.01,SW,221,9.0,11.0,57,0.00,,,0.00,,2013-07-22 14:01:00,
2013-07-22 07:32:00,74.0,56.0,30.02,SW,221,5.0,8.0,53,0.00,,,0.00,,2013-07-22 14:32:00,
2013-07-22 07:53:00,76.0,55.0,30.02,SW,236,3.0,8.0,49,0.00,,,0.00,,2013-07-22 14:53:00,
2013-07-22 08:01:00,77.0,55.0,30.03,West,268,4.0,9.0,47,0.00,,,0.00,,2013-07-22 15:01:00,
2013-07-22 08:32:00,80.0,53.0,30.04,ENE,57,2.0,8.0,40,0.00,,,0.00,,2013-07-22 15:32:00,
2013-07-22 08:42:00,80.0,55.0,30.04,ENE,63,3.0,6.0,42,0.00,,,0.00,,2013-07-22 15:42:00,
2013-07-22 08:52:00,80.0,53.0,30.04,East,80,5.0,8.0,39,0.00,,,0.00,,2013-07-22 15:52:00,
2013-07-22 09:01:00,79.0,52.0,30.04,ENE,76,6.0,9.0,39,0.00,,,0.00,,2013-07-22 16:01:00,
2013-07-22 09:32:00,80.0,53.0,30.04,SE,128,2.0,8.0,40,0.00,,,0.00,,2013-07-22 16:32:00,
2013-07-22 09:52:00,80.0,55.0,30.04,SSE,155,3.0,10.0,42,0.00,,,0.00,,2013-07-22 16:52:00,
2013-07-22 10:23:00,82.0,55.0,30.05,East,83,5.0,9.0,40,0.00,,,0.00,,2013-07-22 17:23:00,
2013-07-22 10:32:00,82.0,55.0,30.05,SSE,162,5.0,9.0,40,0.00,,,0.00,,2013-07-22 17:32:00,
2013-07-22 10:42:00,82.0,55.0,30.05,ESE,104,8.0,11.0,40,0.00,,,0.00,,2013-07-22 17:42:00,
2013-07-22 10:52:00,82.0,56.0,30.05,SSE,152,4.0,8.0,41,0.00,,,0.00,,2013-07-22 17:52:00,
2013-07-22 11:01:00,83.0,55.0,30.05,East,85,8.0,11.0,39,0.00,,,0.00,,2013-07-22 18:01:00,
2013-07-22 11:43:00,84.0,56.0,30.05,ENE,62,5.0,13.0,39,0.00,,,0.00,,2013-07-22 18:43:00,
2013-07-22 12:01:00,84.0,56.0,30.05,East,94,10.0,15.0,38,0.00,,,0.00,,2013-07-22 19:01:00,
2013-07-22 12:43:00,85.0,57.0,30.04,SSE,152,3.0,10.0,38,0.00,,,0.00,,2013-07-22 19:43:00,
2013-07-22 13:32:00,85.0,56.0,30.02,South,181,5.0,14.0,37,0.00,,,0.00,,2013-07-22 20:32:00,
2013-07-22 13:43:00,86.0,57.0,30.02,ESE,102,8.0,14.0,37,0.00,,,0.00,,2013-07-22 20:43:00,
2013-07-22 14:32:00,87.0,55.0,30.01,ENE,78,6.0,9.0,34,0.00,,,0.00,,2013-07-22 21:32:00,
2013-07-22 14:43:00,88.0,56.0,30.00,SE,126,7.0,14.0,34,0.00,,,0.00,,2013-07-22 21:43:00,
2013-07-22 15:11:00,88.0,55.0,30.00,East,88,7.0,10.0,33,0.00,,,0.00,,2013-07-22 22:11:00,
2013-07-22 15:52:00,88.0,55.0,29.99,West,268,5.0,14.0,33,0.00,,,0.00,,2013-07-22 22:52:00,
2013-07-22 17:01:00,84.0,55.0,29.98,West,265,15.0,28.0,37,0.00,,,0.00,,2013-07-23 00:01:00,
2013-07-22 17:11:00,84.0,55.0,29.98,West,274,17.0,28.0,37,0.00,,,0.00,,2013-07-23 00:11:00,
2013-07-22 17:43:00,84.0,52.0,29.98,West,267,14.0,25.0,33,0.00,,,0.00,,2013-07-23 00:43:00,
2013-07-22 18:32:00,80.0,55.0,30.01,NNW,338,18.0,30.0,42,0.00,,,0.00,,2013-07-23 01:32:00,
2013-07-22 18:43:00,81.0,54.0,29.98,NNW,328,9.0,26.0,40,0.00,,,0.00,,2013-07-23 01:43:00,
2013-07-22 19:33:00,81.0,54.0,30.00,WNW,282,4.0,17.0,40,0.00,,,0.00,,2013-07-23 02:33:00,
2013-07-22 19:43:00,80.0,53.0,30.00,WNW,282,8.0,15.0,40,0.00,,,0.00,,2013-07-23 02:43:00,
2013-07-22 20:01:00,80.0,51.0,30.01,NNW,347,5.0,17.0,37,0.00,,,0.00,,2013-07-23 03:01:00,
2013-07-22 20:11:00,80.0,51.0,30.01,SSE,164,7.0,12.0,37,0.00,,,0.00,,2013-07-23 03:11:00,
2013-07-22 20:33:00,78.0,54.0,30.03,SE,143,2.0,8.0,44,0.00,,,0.00,,2013-07-23 03:33:00,
2013-07-22 20:43:00,78.0,56.0,30.03,ESE,105,4.0,6.0,46,0.00,,,0.00,,2013-07-23 03:43:00,
2013-07-22 20:52:00,77.0,57.0,30.03,ENE,67,6.0,8.0,50,0.00,,,0.00,,2013-07-23 03:52:00,
2013-07-22 21:01:00,76.0,58.0,30.03,SE,128,3.0,7.0,54,0.00,,,0.00,,2013-07-23 04:01:00,
2013-07-22 21:11:00,76.0,58.0,30.03,South,171,5.0,8.0,54,0.00,,,0.00,,2013-07-23 04:11:00,
2013-07-22 21:42:00,76.0,55.0,30.01,WSW,252,5.0,8.0,49,0.00,,,0.00,,2013-07-23 04:42:00,
2013-07-22 21:53:00,77.0,53.0,30.01,WSW,254,9.0,14.0,43,0.00,,,0.00,,2013-07-23 04:53:00,
2013-07-22 22:02:00,77.0,51.0,30.01,West,271,9.0,14.0,41,0.00,,,0.00,,2013-07-23 05:02:00,
2013-07-22 22:11:00,77.0,51.0,30.01,WNW,287,9.0,18.0,41,0.00,,,0.00,,2013-07-23 05:11:00,
2013-07-22 22:52:00,77.0,51.0,30.03,NNW,339,7.0,16.0,41,0.00,,,0.00,,2013-07-23 05:52:00,
2013-07-22 23:01:00,77.0,53.0,30.03,ENE,76,6.0,9.0,43,0.00,,,0.00,,2013-07-23 06:01:00,
2013-07-22 23:33:00,73.0,55.0,30.04,WSW,252,5.0,8.0,53,0.00,,,0.00,,2013-07-23 06:33:00,